Main page
METAR-TAF:

METAR-TAF

Airports :

Turin Airport

Turin, Italy

latitude: 45-13N, longitude: 007-39E, elevation: 301 m

Current weather observation

The report was made 29 minutes ago, at 18:50 UTC
Wind 6 kt from the North
Temperature 18°C
Humidity 77%
Pressure 1016 hPa
Visibility 10 km or more
Broken clouds at a height of 4500 ft
light rain,

METAR: LIMF 141850Z 36006KT 9999 -RA BKN045 18/14 Q1016

Time: 21:19 (19:19 UTC)

Forecast

The report was made 2 hours and 19 minutes ago, at 17:00 UTC
Forecast valid from 14 at 18 UTC to 15 at 18 UTC
Wind 5 kt from variable directions
Visibility 10 km or more
Broken clouds at a height of 3000 ft
Temporary
from 15 at 02 UTC to 15 at 09 UTC
rain
Becoming
from 15 at 09 UTC to 15 at 11 UTC
Wind 10 kt from the Northeast
Temporary
from 15 at 14 UTC to 15 at 18 UTC
thunderstorm, rain,

TAF: LIMF 141700Z 1418/1518 VRB05KT 9999 BKN030 TEMPO 1502/1509 RA BECMG 1509/1511 04010KT TEMPO 1514/1518 TSRA

Weather observations and forecasts of more than 4000 airports (METAR and TAF reports).

The available stations are represented by yellow and red dots on the map.

Hover mouse over dot to see the name of the station.

Then click to see weather observations and forecasts.

To change the map : click on the green buttons with a black cross to zoom in, on the green button with a dash to zoom out, or on the green arrows for adjacent maps.


METAR-TAF: